Time;durP1;ratioP1;P1;durP2;ratioP2;P2;SDS_P1;SDS_P2;PMS_P1;PMS_P2;Temp;Humidity;BMP_temperature;BMP_pressure;BME280_temperature;BME280_humidity;BME280_pressure;Samples;Min_cycle;Max_cycle;Signal;HPM_P1;HPM_P2
2024/03/05 00:00:10;;;;;;;46.80;24.77;;;;;;;10.58;100.00;97739.47;5161048;23;20900;-88
2024/03/05 00:02:15;;;;;;;48.60;25.40;;;;;;;10.58;100.00;97742.06;5161747;23;20571;-90
2024/03/05 00:04:18;;;;;;;47.60;25.70;;;;;;;10.57;100.00;97750.00;5162228;23;20641;-90
2024/03/05 00:06:22;;;;;;;49.00;24.87;;;;;;;10.56;100.00;97740.53;5136780;23;20597;-88
2024/03/05 00:08:25;;;;;;;54.87;26.37;;;;;;;10.55;100.00;97741.47;5162645;23;20575;-89
2024/03/05 00:10:29;;;;;;;51.80;25.50;;;;;;;10.52;100.00;97739.91;5160504;23;20584;-89
2024/03/05 00:12:33;;;;;;;53.33;27.70;;;;;;;10.53;100.00;97738.97;5162118;23;20570;-90
2024/03/05 00:14:36;;;;;;;50.60;26.20;;;;;;;10.54;100.00;97742.41;5161305;23;20580;-90
2024/03/05 00:16:39;;;;;;;46.77;25.73;;;;;;;10.53;100.00;97738.16;5134798;23;20639;-90
2024/03/05 00:18:43;;;;;;;49.33;25.77;;;;;;;10.55;100.00;97752.72;5162402;23;20579;-91
2024/03/05 00:20:46;;;;;;;49.10;26.40;;;;;;;10.54;100.00;97743.25;5188934;22;20650;-90
2024/03/05 00:22:50;;;;;;;52.67;26.27;;;;;;;10.56;100.00;97748.34;5136701;23;20573;-91
2024/03/05 00:24:53;;;;;;;45.70;25.67;;;;;;;10.56;100.00;97753.56;5161295;23;20552;-89
2024/03/05 00:26:59;;;;;;;50.83;26.70;;;;;;;10.54;100.00;97755.44;5162525;23;20645;-90
2024/03/05 00:29:03;;;;;;;51.60;26.40;;;;;;;10.54;100.00;97755.44;5137569;23;20668;-89
2024/03/05 00:31:06;;;;;;;50.33;27.23;;;;;;;10.55;100.00;97754.50;5161683;23;20561;-90
2024/03/05 00:33:10;;;;;;;55.00;25.70;;;;;;;10.55;100.00;97755.31;5161592;23;20559;-90
2024/03/05 00:35:15;;;;;;;49.47;26.10;;;;;;;10.55;100.00;97759.72;5136245;23;20566;-90
2024/03/05 00:37:17;;;;;;;49.40;25.00;;;;;;;10.56;100.00;97757.00;5161007;23;20658;-89
2024/03/05 00:39:20;;;;;;;44.90;25.00;;;;;;;10.56;100.00;97758.78;5136902;23;20591;-90
2024/03/05 00:41:24;;;;;;;48.50;25.57;;;;;;;10.55;100.00;97760.53;5136851;23;21044;-91
2024/03/05 00:43:29;;;;;;;47.30;25.53;;;;;;;10.55;100.00;97760.53;5162513;23;20652;-90
2024/03/05 00:45:32;;;;;;;53.50;26.43;;;;;;;10.54;100.00;97763.25;5137159;23;20589;-90
2024/03/05 00:47:35;;;;;;;50.97;25.07;;;;;;;10.52;100.00;97754.72;5139050;23;20571;-90
2024/03/05 00:49:39;;;;;;;48.03;25.30;;;;;;;10.51;100.00;97760.91;5139498;23;20573;-90
2024/03/05 00:51:42;;;;;;;49.70;25.17;;;;;;;10.50;99.98;97765.28;5164012;23;20588;-89
2024/03/05 00:53:47;;;;;;;55.83;27.40;;;;;;;10.50;100.00;97760.06;5190285;22;20551;-89
2024/03/05 00:55:50;;;;;;;51.53;25.87;;;;;;;10.49;100.00;97762.78;5137903;23;21138;-90
2024/03/05 00:57:55;;;;;;;50.37;26.67;;;;;;;10.48;100.00;97764.56;5138080;23;20637;-90
2024/03/05 01:00:00;;;;;;;45.63;24.53;;;;;;;10.51;100.00;97766.13;5138183;23;20595;-89
2024/03/05 01:02:03;;;;;;;47.00;24.77;;;;;;;10.49;100.00;97768.84;5163875;23;20554;-90
2024/03/05 01:04:07;;;;;;;47.90;24.03;;;;;;;10.48;100.00;97766.34;5138185;23;20572;-90
2024/03/05 01:06:11;;;;;;;44.87;25.17;;;;;;;10.48;100.00;97761.94;5163148;23;20614;-90
2024/03/05 01:08:14;;;;;;;48.73;26.40;;;;;;;10.49;100.00;97768.00;5164310;23;20564;-90
2024/03/05 01:10:17;;;;;;;47.80;24.90;;;;;;;10.48;100.00;97766.34;5164364;23;20564;-89
2024/03/05 01:12:21;;;;;;;44.90;23.47;;;;;;;10.45;100.00;97762.19;5137734;23;20689;-90
2024/03/05 01:14:24;;;;;;;45.90;25.93;;;;;;;10.43;100.00;97768.44;5189830;22;21149;-89
2024/03/05 01:16:29;;;;;;;46.90;24.30;;;;;;;10.41;100.00;97760.72;5162516;23;20639;-89
2024/03/05 01:18:33;;;;;;;48.87;25.97;;;;;;;10.42;100.00;97766.78;5138078;23;20576;-87
2024/03/05 01:20:39;;;;;;;47.37;24.97;;;;;;;10.41;100.00;97755.50;5136586;23;20571;-88
2024/03/05 01:22:42;;;;;;;45.77;25.20;;;;;;;10.39;100.00;97767.00;5137583;23;20922;-88
2024/03/05 01:24:46;;;;;;;44.80;23.70;;;;;;;10.39;100.00;97764.41;5137548;23;20620;-89
2024/03/05 01:26:48;;;;;;;50.00;24.60;;;;;;;10.38;100.00;97758.34;5134755;23;20579;-90
2024/03/05 01:28:52;;;;;;;45.40;23.30;;;;;;;10.38;100.00;97760.13;5163840;23;20570;-91
2024/03/05 01:30:55;;;;;;;54.80;26.10;;;;;;;10.39;100.00;97756.59;5137553;23;20589;-90
2024/03/05 01:33:05;;;;;;;50.93;27.10;;;;;;;10.40;100.00;97758.22;5190009;22;20599;-90
2024/03/05 01:35:10;;;;;;;52.00;27.37;;;;;;;10.39;100.00;97761.81;5137209;23;21449;-90
2024/03/05 01:37:14;;;;;;;51.67;26.90;;;;;;;10.38;100.00;97754.91;5136498;23;20636;-91
2024/03/05 01:39:18;;;;;;;48.70;24.87;;;;;;;10.37;100.00;97756.69;5138277;23;20924;-90
2024/03/05 01:41:22;;;;;;;47.37;24.07;;;;;;;10.37;100.00;97758.44;5161912;23;20622;-89
2024/03/05 01:43:26;;;;;;;46.53;25.63;;;;;;;10.36;100.00;97749.81;5162907;23;20618;-90
2024/03/05 01:45:29;;;;;;;47.73;26.97;;;;;;;10.35;100.00;97750.75;5189280;22;20555;-89
2024/03/05 01:47:33;;;;;;;52.60;27.60;;;;;;;10.33;100.00;97757.03;5138536;23;21134;-91
2024/03/05 01:49:38;;;;;;;49.37;25.70;;;;;;;10.33;100.00;97757.03;5137900;23;20571;-89
2024/03/05 01:51:42;;;;;;;46.10;24.70;;;;;;;10.33;100.00;97757.03;5189976;22;20697;-90
2024/03/05 01:53:47;;;;;;;45.70;24.73;;;;;;;10.32;100.00;97753.56;5136861;23;20601;-90
2024/03/05 01:55:53;;;;;;;48.87;24.87;;;;;;;10.32;100.00;97756.19;5162018;23;20561;-91
2024/03/05 01:57:57;;;;;;;49.40;25.00;;;;;;;10.33;100.00;97765.66;5137662;23;20608;-89
2024/03/05 02:00:00;;;;;;;51.60;27.30;;;;;;;10.34;100.00;97764.75;5138371;23;20569;-90
2024/03/05 02:02:07;;;;;;;47.87;25.77;;;;;;;10.34;100.00;97764.75;5163503;23;21095;-91
2024/03/05 02:04:12;;;;;;;50.60;25.87;;;;;;;10.36;100.00;97762.03;5137147;23;20569;-90
2024/03/05 02:06:17;;;;;;;49.37;25.90;;;;;;;10.36;100.00;97764.63;5161814;23;20622;-89
2024/03/05 02:08:22;;;;;;;50.70;25.23;;;;;;;10.37;100.00;97761.91;5137144;23;20589;-91
2024/03/05 02:10:26;;;;;;;54.37;26.43;;;;;;;10.37;100.00;97774.94;5137821;23;20576;-90
2024/03/05 02:12:30;;;;;;;54.90;27.80;;;;;;;10.35;100.00;97768.16;5163181;23;20607;-89
2024/03/05 02:14:34;;;;;;;49.93;25.77;;;;;;;10.35;100.00;97774.19;5137222;23;20573;-89
2024/03/05 02:16:37;;;;;;;46.43;24.27;;;;;;;10.34;100.00;97767.34;5136733;23;21169;-91
2024/03/05 02:18:40;;;;;;;55.93;27.33;;;;;;;10.33;100.00;97772.66;5163341;23;20612;-88
2024/03/05 02:20:44;;;;;;;53.13;26.90;;;;;;;10.33;100.00;97770.88;5137720;23;20603;-90
2024/03/05 02:22:48;;;;;;;45.27;24.53;;;;;;;10.34;100.00;97775.16;5136934;23;20800;-89
2024/03/05 02:24:51;;;;;;;45.97;23.47;;;;;;;10.35;100.00;97773.38;5162651;23;20917;-90
2024/03/05 02:26:54;;;;;;;50.63;25.87;;;;;;;10.35;100.00;97771.59;5162635;23;20576;-90
2024/03/05 02:28:58;;;;;;;46.63;23.53;;;;;;;10.34;100.00;97769.94;5137411;23;20581;-89
2024/03/05 02:31:01;;;;;;;50.33;24.60;;;;;;;10.33;100.00;97768.28;5161173;23;20564;-90
2024/03/05 02:33:06;;;;;;;49.57;26.17;;;;;;;10.32;100.00;97766.59;5163620;23;20552;-90
2024/03/05 02:35:10;;;;;;;49.33;24.30;;;;;;;10.32;100.00;97771.81;5162383;23;20652;-90
2024/03/05 02:37:14;;;;;;;48.50;25.33;;;;;;;10.33;100.00;97773.50;5137639;23;20659;-90
2024/03/05 02:39:19;;;;;;;48.77;25.93;;;;;;;10.34;100.00;97772.56;5162965;23;20665;-85
2024/03/05 02:41:24;;;;;;;49.70;27.00;;;;;;;10.35;100.00;97769.00;5137132;23;20585;-85
2024/03/05 02:43:26;;;;;;;48.70;26.17;;;;;;;10.38;100.00;97778.38;5163002;23;20589;-84
2024/03/05 02:45:29;;;;;;;49.30;27.30;;;;;;;10.38;100.00;97770.56;5136704;23;20570;-84
2024/03/05 02:47:32;;;;;;;50.23;27.10;;;;;;;10.38;100.00;97776.59;5136293;23;20579;-85
2024/03/05 02:49:36;;;;;;;51.60;26.97;;;;;;;10.40;100.00;97773.88;5136785;23;20565;-85
2024/03/05 02:51:39;;;;;;;54.73;27.57;;;;;;;10.38;100.00;97773.16;5138513;23;20573;-84
2024/03/05 02:53:42;;;;;;;49.20;25.30;;;;;;;10.39;100.00;97778.25;5162476;23;20575;-85
2024/03/05 02:55:47;;;;;;;46.87;25.20;;;;;;;10.41;100.00;97778.97;5136187;23;21138;-84
2024/03/05 02:57:50;;;;;;;58.63;27.57;;;;;;;10.41;100.00;97775.53;5161741;23;21043;-84
2024/03/05 02:59:53;;;;;;;50.60;25.97;;;;;;;10.39;100.00;97769.63;5161691;23;20608;-85
2024/03/05 03:01:56;;;;;;;51.93;27.17;;;;;;;10.40;100.00;97773.88;5190108;22;20560;-84
2024/03/05 03:04:00;;;;;;;49.03;24.17;;;;;;;10.40;100.00;97779.09;5162491;23;20614;-84
2024/03/05 03:06:04;;;;;;;41.80;22.33;;;;;;;10.39;100.00;97780.88;5161662;23;20603;-84
2024/03/05 03:08:07;;;;;;;39.40;22.33;;;;;;;10.38;100.00;97781.81;5137823;23;21191;-85
2024/03/05 03:10:11;;;;;;;50.20;26.73;;;;;;;10.38;100.00;97780.97;5162418;23;21279;-85
2024/03/05 03:12:16;;;;;;;50.17;24.20;;;;;;;10.34;100.00;97779.53;5163479;23;20558;-84
2024/03/05 03:14:21;;;;;;;51.03;25.80;;;;;;;10.32;100.00;97776.22;5137187;23;20553;-85
2024/03/05 03:16:24;;;;;;;42.77;25.30;;;;;;;10.33;100.00;97785.69;5135392;23;21587;-84
2024/03/05 03:18:27;;;;;;;46.60;25.20;;;;;;;10.33;100.00;97789.13;5136946;23;20637;-84
2024/03/05 03:20:32;;;;;;;51.27;25.90;;;;;;;10.35;100.00;97786.41;5162726;23;20639;-84
2024/03/05 03:22:35;;;;;;;50.93;26.40;;;;;;;10.35;100.00;97783.81;5136946;23;20585;-84
2024/03/05 03:24:38;;;;;;;49.83;25.60;;;;;;;10.35;100.00;97789.03;5136888;23;20569;-84
2024/03/05 03:26:42;;;;;;;46.67;25.13;;;;;;;10.36;100.00;97788.09;5161728;23;20553;-84
2024/03/05 03:28:46;;;;;;;43.57;24.33;;;;;;;10.35;100.00;97789.84;5137602;23;20588;-85
2024/03/05 03:30:52;;;;;;;41.20;23.10;;;;;;;10.34;100.00;97790.81;5161748;23;20644;-85
2024/03/05 03:32:58;;;;;;;47.67;24.37;;;;;;;10.31;100.00;97787.56;5137502;23;20637;-84
2024/03/05 03:35:02;;;;;;;49.63;26.17;;;;;;;10.30;100.00;97788.53;5161295;23;20568;-84
2024/03/05 03:37:07;;;;;;;54.00;26.07;;;;;;;10.27;100.00;97783.53;5162719;23;20564;-84
2024/03/05 03:39:11;;;;;;;50.33;26.10;;;;;;;10.26;100.00;97781.88;5160938;23;20612;-85
2024/03/05 03:41:14;;;;;;;46.33;25.20;;;;;;;10.25;100.00;97795.81;5136444;23;20663;-85
2024/03/05 03:43:17;;;;;;;47.73;23.87;;;;;;;10.25;100.00;97785.41;5160912;23;20575;-85
2024/03/05 03:45:23;;;;;;;46.30;24.93;;;;;;;10.27;100.00;97788.75;5135374;23;20608;-85
2024/03/05 03:47:26;;;;;;;47.40;25.40;;;;;;;10.24;100.00;97788.97;5135567;23;20604;-85
2024/03/05 03:49:30;;;;;;;53.00;25.93;;;;;;;10.23;100.00;97783.88;5161044;23;21560;-85
2024/03/05 03:51:33;;;;;;;44.77;23.27;;;;;;;10.22;100.00;97797.81;5161874;23;20627;-85
2024/03/05 03:53:36;;;;;;;45.27;23.77;;;;;;;10.18;100.00;97789.41;5136080;23;20581;-85
2024/03/05 03:55:39;;;;;;;52.03;24.97;;;;;;;10.18;100.00;97788.56;5136134;23;20574;-85
2024/03/05 03:57:43;;;;;;;48.83;25.33;;;;;;;10.13;100.00;97791.53;5161909;23;20664;-85
2024/03/05 03:59:46;;;;;;;52.83;26.17;;;;;;;10.11;100.00;97793.38;5135887;23;20635;-85
2024/03/05 04:01:51;;;;;;;51.13;25.07;;;;;;;10.12;100.00;97797.66;5161094;23;20570;-85
2024/03/05 04:03:54;;;;;;;45.77;24.70;;;;;;;10.14;100.00;97793.16;5161124;23;21005;-85
2024/03/05 04:05:59;;;;;;;56.20;25.60;;;;;;;10.14;100.00;97793.16;5159971;23;21258;-84
2024/03/05 04:08:02;;;;;;;53.07;26.30;;;;;;;10.12;100.00;97795.06;5160741;23;20687;-84
2024/03/05 04:10:10;;;;;;;57.07;29.23;;;;;;;10.12;100.00;97795.06;5135188;23;20581;-84
2024/03/05 04:12:14;;;;;;;56.80;28.70;;;;;;;10.12;100.00;97800.28;5136309;23;20604;-84
2024/03/05 04:14:17;;;;;;;58.20;28.30;;;;;;;10.14;100.00;97813.19;5160649;23;20947;-84
2024/03/05 04:16:21;;;;;;;53.17;25.83;;;;;;;10.16;100.00;97806.91;5159314;23;20646;-85
2024/03/05 04:18:26;;;;;;;57.87;29.30;;;;;;;10.18;100.00;97814.63;5160441;23;20655;-84
2024/03/05 04:20:30;;;;;;;56.40;26.77;;;;;;;10.18;100.00;97815.47;5162697;23;21285;-84
2024/03/05 04:22:33;;;;;;;54.10;26.63;;;;;;;10.20;100.00;97813.56;5161557;23;20659;-84
2024/03/05 04:24:37;;;;;;;54.17;26.90;;;;;;;10.20;100.00;97810.97;5161658;23;21323;-85
2024/03/05 04:26:42;;;;;;;58.93;27.60;;;;;;;10.22;100.00;97813.47;5162904;23;20556;-85
2024/03/05 04:28:48;;;;;;;58.63;27.93;;;;;;;10.23;100.00;97808.13;5188454;22;20567;-85
2024/03/05 04:30:57;;;;;;;60.37;30.37;;;;;;;10.25;100.00;97811.47;5161138;23;21146;-85
2024/03/05 04:33:03;;;;;;;61.45;31.00;;;;;;;10.27;100.00;97804.38;5160894;23;20784;-84
2024/03/05 04:35:11;;;;;;;55.17;27.53;;;;;;;10.31;100.00;97818.84;5158971;23;20701;-85
2024/03/05 04:37:14;;;;;;;54.53;28.00;;;;;;;10.32;100.00;97813.53;5135774;23;20678;-84
2024/03/05 04:39:18;;;;;;;51.90;25.73;;;;;;;10.34;100.00;97818.63;5136182;23;20663;-84
2024/03/05 04:41:21;;;;;;;53.93;27.77;;;;;;;10.35;100.00;97818.50;5083933;23;1219494;-85
2024/03/05 04:43:26;;;;;;;54.17;28.57;;;;;;;10.36;100.00;97819.38;5136228;23;20272;-85
2024/03/05 04:45:29;;;;;;;52.23;26.33;;;;;;;10.36;100.00;97817.59;5134460;23;21284;-85
2024/03/05 04:47:33;;;;;;;51.93;27.57;;;;;;;10.38;100.00;97822.69;5136502;23;21024;-85
2024/03/05 04:49:36;;;;;;;52.07;26.57;;;;;;;10.38;100.00;97822.69;5136456;23;20588;-85
2024/03/05 04:51:41;;;;;;;52.30;27.60;;;;;;;10.37;100.00;97816.66;5161790;23;20667;-85
2024/03/05 04:53:44;;;;;;;55.40;26.77;;;;;;;10.37;100.00;97815.78;5161627;23;20591;-85
2024/03/05 04:55:48;;;;;;;55.50;27.03;;;;;;;10.35;100.00;97813.31;5136282;23;20640;-85
2024/03/05 04:57:51;;;;;;;51.53;26.20;;;;;;;10.33;100.00;97814.38;5137143;23;20601;-84
2024/03/05 04:59:54;;;;;;;73.73;35.53;;;;;;;10.32;100.00;97823.13;5136797;23;20612;-84
2024/03/05 05:01:58;;;;;;;112.10;48.50;;;;;;;10.30;100.00;97818.94;5161565;23;20639;-85
2024/03/05 05:04:03;;;;;;;88.23;42.13;;;;;;;10.29;100.00;97817.31;5162328;23;20577;-85
2024/03/05 05:06:07;;;;;;;77.77;37.50;;;;;;;10.29;100.00;97820.75;5135912;23;20630;-85
2024/03/05 05:08:10;;;;;;;49.70;25.00;;;;;;;10.26;100.00;97817.53;5189003;22;20567;-85
2024/03/05 05:10:14;;;;;;;46.83;24.33;;;;;;;10.22;100.00;97824.72;5135662;23;20585;-85
2024/03/05 05:12:17;;;;;;;46.37;24.47;;;;;;;10.19;100.00;97819.72;5135218;23;21129;-85
2024/03/05 05:14:21;;;;;;;44.57;23.93;;;;;;;10.18;100.00;97812.00;5160633;23;20573;-85
2024/03/05 05:16:24;;;;;;;47.17;24.20;;;;;;;10.16;100.00;97816.50;5161188;23;20567;-85
2024/03/05 05:18:28;;;;;;;54.30;26.30;;;;;;;10.13;100.00;97817.56;5162040;23;20596;-85
2024/03/05 05:20:31;;;;;;;51.30;26.73;;;;;;;10.10;100.00;97817.78;5162587;23;20600;-84
2024/03/05 05:22:37;;;;;;;53.17;26.17;;;;;;;10.09;100.00;97817.91;5136683;23;20569;-84
2024/03/05 05:24:42;;;;;;;51.03;24.67;;;;;;;10.10;100.00;97816.94;5161120;23;20655;-84
2024/03/05 05:26:46;;;;;;;57.87;25.90;;;;;;;10.09;100.00;97818.72;5160561;23;20576;-85
2024/03/05 05:28:50;;;;;;;49.90;25.47;;;;;;;10.10;100.00;97823.00;5161772;23;20565;-84
2024/03/05 05:30:53;;;;;;;48.07;23.67;;;;;;;10.10;100.00;97822.16;5190730;22;20635;-85
2024/03/05 05:32:57;;;;;;;49.20;26.13;;;;;;;10.11;100.00;97829.03;5162205;23;21122;-84
2024/03/05 05:34:59;;;;;;;51.93;25.80;;;;;;;10.10;100.00;97827.34;5162319;23;20887;-85
2024/03/05 05:37:04;;;;;;;48.90;24.10;;;;;;;10.09;100.00;97823.94;5138130;23;20561;-84
2024/03/05 05:39:08;;;;;;;55.23;24.93;;;;;;;10.09;100.00;97813.50;5137307;23;20650;-85
2024/03/05 05:41:12;;;;;;;54.03;25.10;;;;;;;10.10;100.00;97823.00;5162599;23;20592;-85
2024/03/05 05:43:15;;;;;;;50.00;24.70;;;;;;;10.10;100.00;97827.34;5189850;22;20959;-85
2024/03/05 05:45:21;;;;;;;55.10;25.50;;;;;;;10.09;100.00;97825.72;5163326;23;20572;-84
2024/03/05 05:47:25;;;;;;;49.23;25.20;;;;;;;10.09;100.00;97825.72;5163165;23;20564;-84
2024/03/05 05:49:28;;;;;;;56.83;28.13;;;;;;;10.07;100.00;97833.63;5137866;23;20657;-85
2024/03/05 05:51:32;;;;;;;54.77;27.40;;;;;;;10.08;100.00;97830.06;5138732;23;20589;-85
2024/03/05 05:53:35;;;;;;;59.20;29.27;;;;;;;10.09;100.00;97820.50;5163712;23;20606;-84
2024/03/05 05:55:39;;;;;;;55.13;28.10;;;;;;;10.11;100.00;97829.84;5135991;23;20589;-84
2024/03/05 05:57:47;;;;;;;57.87;28.23;;;;;;;10.11;100.00;97829.84;5136833;23;20569;-85
2024/03/05 05:59:50;;;;;;;56.37;28.37;;;;;;;10.08;100.00;97834.47;5138325;23;20600;-84
2024/03/05 06:01:54;;;;;;;58.07;28.27;;;;;;;10.07;100.00;97838.84;5138215;23;20636;-84
2024/03/05 06:03:58;;;;;;;61.13;27.07;;;;;;;10.09;100.00;97838.75;5162220;23;20587;-85
2024/03/05 06:06:03;;;;;;;57.43;28.10;;;;;;;10.11;100.00;97835.06;5136411;23;21582;-84
2024/03/05 06:08:10;;;;;;;57.93;29.03;;;;;;;10.12;100.00;97841.97;5162764;23;20591;-84
2024/03/05 06:10:17;;;;;;;58.50;29.63;;;;;;;10.15;100.00;97846.09;5162936;23;20965;-83
2024/03/05 06:12:22;;;;;;;56.17;27.90;;;;;;;10.14;100.00;97845.28;5189746;22;20556;-82
2024/03/05 06:14:27;;;;;;;57.17;28.57;;;;;;;10.15;100.00;97849.56;5163135;23;21142;-84
2024/03/05 06:16:31;;;;;;;59.57;27.87;;;;;;;10.16;100.00;97853.81;5161372;23;20639;-83
2024/03/05 06:18:36;;;;;;;52.87;26.67;;;;;;;10.18;100.00;97853.69;5163119;23;21099;-83
2024/03/05 06:20:40;;;;;;;51.20;24.93;;;;;;;10.18;100.00;97857.16;5162927;23;20592;-82
2024/03/05 06:22:44;;;;;;;53.07;25.87;;;;;;;10.19;100.00;97852.78;5160178;23;20999;-84
2024/03/05 06:24:48;;;;;;;47.10;24.80;;;;;;;10.20;100.00;97860.47;5161296;23;20618;-83
2024/03/05 06:26:51;;;;;;;47.93;25.57;;;;;;;10.20;100.00;97855.28;5137407;23;20568;-85
2024/03/05 06:28:55;;;;;;;47.17;25.80;;;;;;;10.22;100.00;97858.59;5162881;23;21467;-84
2024/03/05 06:31:00;;;;;;;51.77;27.13;;;;;;;10.22;100.00;97858.59;5137218;23;20566;-83
2024/03/05 06:33:06;;;;;;;50.63;27.53;;;;;;;10.22;100.00;97853.38;5136497;23;20930;-84
2024/03/05 06:35:11;;;;;;;47.77;24.50;;;;;;;10.21;100.00;97861.31;5161534;23;21155;-85
2024/03/05 06:37:15;;;;;;;47.40;25.77;;;;;;;10.21;100.00;97862.16;5136309;23;20569;-84
2024/03/05 06:39:19;;;;;;;52.27;25.10;;;;;;;10.21;100.00;97869.13;5162956;23;20615;-84
2024/03/05 06:41:25;;;;;;;52.57;25.43;;;;;;;10.20;100.00;97864.88;5189094;22;20607;-84
2024/03/05 06:43:33;;;;;;;58.77;27.40;;;;;;;10.19;100.00;97869.22;5163814;23;20572;-84
2024/03/05 06:45:37;;;;;;;50.80;25.10;;;;;;;10.20;100.00;97875.28;5136073;23;20577;-84
2024/03/05 06:47:44;;;;;;;53.77;26.67;;;;;;;10.21;100.00;97871.72;5161896;23;20615;-84
2024/03/05 06:49:48;;;;;;;50.25;26.27;;;;;;;10.21;100.00;97872.56;5163306;23;20575;-84
2024/03/05 06:51:55;;;;;;;49.70;23.90;;;;;;;10.21;100.00;97872.56;5162907;23;20178;-84
2024/03/05 06:58:45;;;;;;;50.55;25.38;;;;;;;10.27;100.00;97881.72;5137112;23;20580;-88
2024/03/05 07:00:49;;;;;;;47.63;24.17;;;;;;;10.27;100.00;97882.56;5137185;23;20261;-84
2024/03/05 07:02:55;;;;;;;50.37;25.47;;;;;;;10.27;100.00;97882.56;5161948;23;20430;-84
2024/03/05 07:05:01;;;;;;;53.10;26.77;;;;;;;10.26;100.00;97886.09;5137665;23;20557;-83
2024/03/05 07:07:07;;;;;;;53.90;26.37;;;;;;;10.26;100.00;97885.28;5162735;23;20585;-84
2024/03/05 07:09:11;;;;;;;48.73;24.50;;;;;;;10.26;100.00;97880.06;5163326;23;20647;-85
2024/03/05 07:11:15;;;;;;;47.27;24.23;;;;;;;10.27;100.00;97887.78;5190555;22;20567;-83
2024/03/05 07:13:20;;;;;;;55.73;27.60;;;;;;;10.30;100.00;97891.94;5137122;23;20611;-84
2024/03/05 07:15:23;;;;;;;49.93;26.70;;;;;;;10.29;100.00;97890.28;5136631;23;20558;-83
2024/03/05 07:17:27;;;;;;;53.93;27.50;;;;;;;10.28;100.00;97889.44;5137350;23;21090;-83
2024/03/05 07:19:34;;;;;;;47.87;26.17;;;;;;;10.27;100.00;97887.78;5136076;23;20920;-84
2024/03/05 07:21:40;;;;;;;51.70;25.43;;;;;;;10.27;100.00;97885.19;5136426;23;20612;-84
2024/03/05 07:23:44;;;;;;;49.30;25.10;;;;;;;10.30;100.00;97887.56;5136075;23;20645;-83
2024/03/05 07:25:47;;;;;;;80.80;40.47;;;;;;;10.32;100.00;97890.91;5161111;23;20597;-83
2024/03/05 07:27:51;;;;;;;101.97;62.50;;;;;;;10.32;100.00;97889.09;5135364;23;20584;-83
2024/03/05 07:29:55;;;;;;;53.27;27.60;;;;;;;10.34;100.00;97895.06;5133994;23;21113;-83
2024/03/05 07:31:58;;;;;;;55.40;27.60;;;;;;;10.36;100.00;97892.34;5185260;22;20568;-83
2024/03/05 07:34:02;;;;;;;48.33;24.80;;;;;;;10.37;100.00;97901.81;5135160;23;20633;-83
2024/03/05 07:36:07;;;;;;;49.97;24.20;;;;;;;10.35;100.00;97899.31;5135117;23;20585;-82
2024/03/05 07:38:11;;;;;;;53.30;27.67;;;;;;;10.38;100.00;97895.69;5161593;23;20899;-82
2024/03/05 07:40:17;;;;;;;50.93;24.93;;;;;;;10.38;100.00;97904.31;5189592;22;20926;-82
2024/03/05 07:42:24;;;;;;;51.00;25.93;;;;;;;10.39;100.00;97897.34;5137290;23;20569;-83
2024/03/05 07:44:27;;;;;;;47.83;24.00;;;;;;;10.40;100.00;97899.84;5136847;23;20577;-83
2024/03/05 07:46:32;;;;;;;58.40;25.80;;;;;;;10.39;100.00;97892.13;5160623;23;20569;-83
2024/03/05 07:48:36;;;;;;;52.83;24.93;;;;;;;10.40;100.00;97902.47;5161483;23;20643;-84
2024/03/05 07:50:40;;;;;;;51.93;26.10;;;;;;;10.42;100.00;97907.56;5136410;23;20576;-83
2024/03/05 07:52:46;;;;;;;52.93;25.80;;;;;;;10.38;100.00;97906.94;5162419;23;20582;-82
2024/03/05 07:54:49;;;;;;;48.00;25.40;;;;;;;10.39;100.00;97906.00;5161173;23;20952;-83
2024/03/05 07:56:52;;;;;;;49.73;25.97;;;;;;;10.40;100.00;97909.44;5160717;23;20644;-83
2024/03/05 07:58:56;;;;;;;52.87;24.87;;;;;;;10.42;100.00;97912.78;5161299;23;20560;-83
2024/03/05 08:01:00;;;;;;;50.10;23.50;;;;;;;10.43;100.00;97917.03;5188472;22;20886;-83
2024/03/05 08:03:04;;;;;;;50.30;26.00;;;;;;;10.44;100.00;97916.09;5135607;23;21486;-82
2024/03/05 08:05:08;;;;;;;55.80;26.23;;;;;;;10.46;100.00;97914.22;5188543;22;20564;-83
2024/03/05 08:07:11;;;;;;;57.83;27.73;;;;;;;10.49;100.00;97916.59;5133211;23;20592;-83
2024/03/05 08:09:15;;;;;;;54.33;26.57;;;;;;;10.51;100.00;97918.16;5189213;22;20870;-83
2024/03/05 08:11:19;;;;;;;51.10;24.60;;;;;;;10.49;100.00;97920.06;5137439;23;20574;-83
2024/03/05 08:13:23;;;;;;;53.30;26.20;;;;;;;10.50;100.00;97921.69;5162148;23;20682;-83
2024/03/05 08:15:26;;;;;;;49.63;26.67;;;;;;;10.51;100.00;97925.16;5161614;23;20598;-82
2024/03/05 08:17:31;;;;;;;58.50;27.77;;;;;;;10.51;100.00;97926.00;5161403;23;20575;-82
2024/03/05 08:19:34;;;;;;;53.13;27.47;;;;;;;10.54;100.00;97925.78;5137063;23;20592;-82
2024/03/05 08:21:40;;;;;;;48.80;25.43;;;;;;;10.56;100.00;97928.28;5137654;23;20613;-82
2024/03/05 08:23:43;;;;;;;55.20;26.70;;;;;;;10.58;100.00;97935.03;5162202;23;20581;-82
2024/03/05 08:25:49;;;;;;;57.30;26.00;;;;;;;10.61;100.00;97934.81;5136496;23;20573;-82
2024/03/05 08:27:54;;;;;;;56.10;28.10;;;;;;;10.61;100.00;97928.78;5162127;23;20659;-82
2024/03/05 08:29:58;;;;;;;53.60;25.97;;;;;;;10.63;100.00;97926.88;5159320;23;20719;-83
2024/03/05 08:32:03;;;;;;;49.80;25.13;;;;;;;10.66;100.00;97935.34;5162430;23;21221;-83
2024/03/05 08:34:06;;;;;;;63.40;28.17;;;;;;;10.68;100.00;97930.00;5135786;23;20652;-82
2024/03/05 08:36:10;;;;;;;54.93;27.67;;;;;;;10.70;100.00;97928.94;5134677;23;21048;-84
2024/03/05 08:38:14;;;;;;;56.97;27.83;;;;;;;10.70;100.00;97941.16;5189157;22;20595;-83
2024/03/05 08:40:18;;;;;;;57.20;27.57;;;;;;;10.73;100.00;97933.13;5137315;23;20592;-81
2024/03/05 08:42:22;;;;;;;62.40;27.97;;;;;;;10.73;100.00;97938.34;5136038;23;20623;-82
2024/03/05 08:44:25;;;;;;;56.43;27.83;;;;;;;10.74;100.00;97933.00;5162194;23;20945;-81
2024/03/05 08:46:28;;;;;;;59.50;27.30;;;;;;;10.75;100.00;97933.81;5189678;22;21178;-84
2024/03/05 08:48:32;;;;;;;54.13;25.47;;;;;;;10.72;100.00;97929.69;5163421;23;21095;-83
2024/03/05 08:50:36;;;;;;;54.07;26.80;;;;;;;10.70;100.00;97941.16;5137063;23;20589;-82
2024/03/05 08:52:41;;;;;;;64.10;27.47;;;;;;;10.66;100.00;97937.09;5138574;23;20612;-82
2024/03/05 08:54:43;;;;;;;56.33;27.23;;;;;;;10.62;100.00;97935.66;5137567;23;20660;-82
2024/03/05 08:56:47;;;;;;;56.20;26.17;;;;;;;10.63;100.00;97935.56;5135840;23;20574;-82
2024/03/05 08:58:53;;;;;;;52.97;27.47;;;;;;;10.66;100.00;97939.69;5160674;23;20954;-83
2024/03/05 09:00:56;;;;;;;57.67;29.67;;;;;;;10.69;100.00;97939.47;5160610;23;20689;-84
2024/03/05 09:03:00;;;;;;;51.90;26.80;;;;;;;10.70;100.00;97941.16;5161430;23;20194;-82
2024/03/05 09:05:04;;;;;;;50.33;25.70;;;;;;;10.67;100.00;97939.59;5138161;23;20728;-83
2024/03/05 09:07:07;;;;;;;43.27;22.90;;;;;;;10.67;100.00;97938.75;5163608;23;21143;-84
2024/03/05 09:09:12;;;;;;;41.23;22.33;;;;;;;10.65;100.00;97940.66;5162280;23;20587;-84
2024/03/05 09:11:15;;;;;;;31.70;19.27;;;;;;;10.60;100.00;97940.13;5135884;23;20955;-84
2024/03/05 09:13:19;;;;;;;32.53;17.33;;;;;;;10.60;100.00;97937.53;5136264;23;21194;-83
2024/03/05 09:15:25;;;;;;;34.73;20.87;;;;;;;10.60;100.00;97945.34;5161839;23;20552;-83
2024/03/05 09:17:29;;;;;;;35.07;20.23;;;;;;;10.61;99.89;97941.81;5138251;23;21317;-83
2024/03/05 09:19:32;;;;;;;34.10;18.70;;;;;;;10.61;99.63;97941.81;5163190;23;21139;-83
2024/03/05 09:21:36;;;;;;;35.90;18.23;;;;;;;10.63;100.00;97937.31;5163225;22;20596;-84
2024/03/05 09:23:40;;;;;;;32.00;19.63;;;;;;;10.66;100.00;97944.91;5163090;23;20654;-83
2024/03/05 09:25:43;;;;;;;34.60;19.23;;;;;;;10.67;99.77;97943.97;5161877;23;20588;-83
2024/03/05 09:27:47;;;;;;;34.90;19.30;;;;;;;10.69;100.00;97940.34;5137559;23;20950;-83